createdAt,value
2023-06-19T00:01:35.292Z,17.86
2023-06-19T00:07:48.804Z,17.23
2023-06-19T00:13:56.311Z,17.69
2023-06-19T00:20:00.759Z,17.68
2023-06-19T00:26:19.233Z,17.55
2023-06-19T00:32:30.903Z,17.68
2023-06-19T00:38:33.280Z,17.86
2023-06-19T00:44:36.740Z,17.71
2023-06-19T00:50:55.698Z,16.95
2023-06-19T00:57:04.798Z,17.64
2023-06-19T01:03:18.893Z,17.26
2023-06-19T01:09:39.930Z,17.90
2023-06-19T01:16:12.481Z,17.66
2023-06-19T01:22:36.998Z,17.12
2023-06-19T01:28:43.595Z,17.11
2023-06-19T01:34:51.371Z,17.44
2023-06-19T01:41:05.570Z,17.50
2023-06-19T01:47:22.135Z,18.25
2023-06-19T01:53:25.560Z,17.53
2023-06-19T01:59:29.049Z,17.28
2023-06-19T02:05:41.592Z,17.34
2023-06-19T02:12:04.153Z,17.39
2023-06-19T02:18:18.605Z,16.72
2023-06-19T02:24:35.295Z,17.78
2023-06-19T02:30:43.764Z,17.05
2023-06-19T02:36:51.141Z,17.21
2023-06-19T02:42:54.617Z,16.60
2023-06-19T02:49:20.423Z,17.42
2023-06-19T02:55:37.671Z,17.37
2023-06-19T03:01:40.186Z,17.61
2023-06-19T03:07:49.367Z,17.58
2023-06-19T03:13:55.189Z,16.60
2023-06-19T03:20:11.868Z,17.15
2023-06-19T03:26:28.252Z,17.54
2023-06-19T03:32:35.781Z,17.46
2023-06-19T03:38:40.198Z,17.76
2023-06-19T03:44:48.692Z,17.42
2023-06-19T03:50:57.161Z,17.18
2023-06-19T03:57:29.770Z,17.47
2023-06-19T04:03:46.814Z,17.58
2023-06-19T04:09:55.781Z,17.15
2023-06-19T04:16:02.880Z,17.80
2023-06-19T04:22:05.719Z,17.37
2023-06-19T04:28:19.081Z,17.94
2023-06-19T04:34:52.899Z,18.05
2023-06-19T04:40:57.713Z,18.03
2023-06-19T04:47:04.902Z,18.01
2023-06-19T04:53:11.377Z,17.21
2023-06-19T04:59:25.088Z,17.99
2023-06-19T05:05:30.740Z,18.00
2023-06-19T05:11:39.188Z,17.68
2023-06-19T05:17:53.304Z,17.80
2023-06-19T05:24:05.402Z,17.80
2023-06-19T05:30:08.410Z,17.93
2023-06-19T05:36:12.689Z,17.91
2023-06-19T05:42:14.595Z,17.84
2023-06-19T05:48:16.689Z,17.95
2023-06-19T05:54:24.333Z,18.01
2023-06-19T06:00:33.551Z,17.77
2023-06-19T06:06:55.256Z,18.19
2023-06-19T06:12:57.720Z,16.60
2023-06-19T06:19:03.876Z,18.30
2023-06-19T06:25:10.310Z,18.34
2023-06-19T06:31:19.241Z,17.95
2023-06-19T06:37:27.190Z,17.99
2023-06-19T06:43:30.236Z,18.30
2023-06-19T06:49:33.215Z,18.18
2023-06-19T06:55:37.864Z,17.47
2023-06-19T07:01:43.989Z,17.58
2023-06-19T07:07:54.354Z,18.32
2023-06-19T07:14:07.657Z,17.82
2023-06-19T07:20:28.567Z,18.31
2023-06-19T07:26:34.514Z,17.44
2023-06-19T07:32:42.469Z,18.74
2023-06-19T07:39:00.906Z,18.33
2023-06-19T07:45:10.913Z,17.24
2023-06-19T07:51:15.056Z,17.48
2023-06-19T07:57:37.976Z,18.16
2023-06-19T08:03:54.022Z,18.46
2023-06-19T08:10:11.514Z,18.76
2023-06-19T08:16:29.199Z,18.90
2023-06-19T08:22:38.062Z,19.29
2023-06-19T08:28:51.487Z,18.16
2023-06-19T08:35:03.888Z,18.05
2023-06-19T08:41:27.574Z,18.63
2023-06-19T08:48:06.430Z,18.05
2023-06-19T09:01:35.126Z,18.65
2023-06-19T10:11:49.494Z,19.26
2023-06-19T10:23:55.056Z,19.74
2023-06-19T10:25:39.447Z,17.90
2023-06-19T10:46:12.374Z,20.10
2023-06-19T11:28:52.902Z,19.77
2023-06-19T11:35:17.132Z,20.62
2023-06-19T11:47:17.600Z,19.68
2023-06-19T12:03:31.219Z,20.72
2023-06-19T12:10:13.608Z,21.58
2023-06-19T12:45:53.629Z,21.92
2023-06-19T12:52:55.195Z,21.20
2023-06-19T13:06:55.128Z,22.08
2023-06-19T13:12:31.467Z,21.49
2023-06-19T13:19:20.333Z,22.11
2023-06-19T13:25:55.059Z,23.72
2023-06-19T13:39:04.721Z,22.92
2023-06-19T13:45:36.748Z,23.02
2023-06-19T13:51:57.353Z,22.67
2023-06-19T14:06:09.928Z,21.05
2023-06-19T14:19:37.658Z,21.95
2023-06-19T14:26:53.642Z,23.25
2023-06-19T14:40:08.770Z,22.09
2023-06-19T14:46:39.348Z,23.13
2023-06-19T14:53:05.729Z,22.44
2023-06-19T14:59:24.073Z,22.76
2023-06-19T15:05:29.122Z,22.83
2023-06-19T15:18:40.856Z,23.01
2023-06-19T15:44:19.292Z,23.08
2023-06-19T15:50:47.570Z,22.14
2023-06-19T15:57:07.178Z,22.83
2023-06-19T16:03:13.877Z,21.28
2023-06-19T16:09:27.841Z,21.24
2023-06-19T16:15:37.522Z,21.50
2023-06-19T16:21:43.515Z,21.13
2023-06-19T16:27:46.928Z,22.02
2023-06-19T16:33:58.224Z,20.45
2023-06-19T16:40:20.093Z,22.56
2023-06-19T16:46:40.210Z,21.03
2023-06-19T16:53:14.906Z,21.01
2023-06-19T16:59:28.462Z,20.81
2023-06-19T17:06:03.225Z,21.01
2023-06-19T17:12:25.853Z,22.32
2023-06-19T17:18:37.461Z,20.92
2023-06-19T17:25:00.448Z,22.16
2023-06-19T17:31:06.689Z,20.23
2023-06-19T17:37:09.331Z,21.49
2023-06-19T17:43:33.419Z,21.94
2023-06-19T17:50:07.136Z,21.34
2023-06-19T17:56:48.852Z,20.27
2023-06-19T18:03:07.945Z,20.17
2023-06-19T18:09:12.245Z,20.02
2023-06-19T18:30:07.985Z,20.86
2023-06-19T18:36:35.567Z,19.37
2023-06-19T18:43:12.538Z,19.73
2023-06-19T18:51:04.714Z,20.72
2023-06-19T18:57:27.246Z,20.59
2023-06-19T19:10:38.501Z,19.93
2023-06-19T19:17:18.470Z,18.77
2023-06-19T19:23:37.579Z,18.79
2023-06-19T19:30:16.725Z,20.26
2023-06-19T19:36:18.716Z,18.81
2023-06-19T20:04:24.233Z,18.76
2023-06-19T20:10:49.935Z,18.91
2023-06-19T20:59:50.261Z,17.44
2023-06-19T21:20:17.417Z,17.53
2023-06-19T21:55:21.528Z,18.29
2023-06-19T22:17:38.156Z,18.89
2023-06-19T22:41:57.209Z,18.91
2023-06-19T23:03:48.316Z,18.76
2023-06-19T23:07:41.944Z,17.93
2023-06-19T23:13:51.873Z,18.90
2023-06-19T23:20:14.659Z,18.36
2023-06-19T23:26:27.797Z,17.22
2023-06-19T23:33:53.802Z,18.44
2023-06-19T23:50:11.577Z,17.50
2023-06-19T23:54:04.189Z,17.85
